Time;durP1;ratioP1;P1;durP2;ratioP2;P2;SDS_P1;SDS_P2;PMS_P1;PMS_P2;Temp;Humidity;BMP_temperature;BMP_pressure;BME280_temperature;BME280_humidity;BME280_pressure;Samples;Min_cycle;Max_cycle;Signal;HPM_P1;HPM_P2
2024/01/02 00:01:45;;;;;;;6.72;3.30;;;;;;;12.23;52.32;98583.34;5092087;28;20024;-48
2024/01/02 00:04:11;;;;;;;9.18;4.97;;;;;;;12.27;52.52;98579.28;5092315;28;20077;-47
2024/01/02 00:06:37;;;;;;;7.15;3.95;;;;;;;12.27;52.13;98590.59;5090569;28;20875;-47
2024/01/02 00:09:02;;;;;;;9.68;6.47;;;;;;;12.18;52.14;98592.69;5090609;28;20016;-47
2024/01/02 00:11:28;;;;;;;45.47;40.58;;;;;;;12.09;52.22;98586.09;5090589;28;20028;-47
2024/01/02 00:13:54;;;;;;;14.85;8.80;;;;;;;11.99;52.72;98576.03;5090543;28;20027;-47
2024/01/02 00:16:19;;;;;;;12.15;7.57;;;;;;;12.02;52.60;98564.28;5091865;28;20076;-47
2024/01/02 00:18:45;;;;;;;10.18;6.38;;;;;;;12.08;51.70;98557.38;5090532;28;20024;-47
2024/01/02 00:21:11;;;;;;;10.73;5.75;;;;;;;11.99;52.03;98543.66;5092071;28;20112;-47
2024/01/02 00:23:36;;;;;;;7.60;5.50;;;;;;;11.94;51.96;98541.66;5091858;28;20024;-47
2024/01/02 00:26:02;;;;;;;5.45;2.95;;;;;;;11.88;51.83;98526.72;5090705;28;20039;-47
2024/01/02 00:28:28;;;;;;;5.80;4.47;;;;;;;11.74;52.47;98518.09;5090376;28;20062;-47
2024/01/02 00:30:53;;;;;;;8.25;4.40;;;;;;;11.75;52.46;98509.19;5091580;28;20044;-47
2024/01/02 00:33:19;;;;;;;9.20;3.38;;;;;;;11.67;52.16;98504.19;5091707;28;20108;-47
2024/01/02 00:35:45;;;;;;;9.50;5.32;;;;;;;11.54;52.94;98507.69;5090356;28;20039;-47
2024/01/02 00:38:11;;;;;;;10.10;3.75;;;;;;;11.49;53.40;98510.16;5091657;28;20028;-47
2024/01/02 00:40:36;;;;;;;5.78;3.55;;;;;;;11.42;52.35;98513.84;5091626;28;20470;-47
2024/01/02 00:43:02;;;;;;;2.65;1.70;;;;;;;11.24;52.88;98528.44;5091601;28;20099;-47
2024/01/02 00:45:28;;;;;;;4.55;1.48;;;;;;;11.08;53.12;98521.03;5090302;28;20062;-47
2024/01/02 00:47:54;;;;;;;3.47;1.50;;;;;;;10.95;53.90;98519.28;5090200;28;20059;-47
2024/01/02 00:50:21;;;;;;;3.17;1.23;;;;;;;10.95;53.63;98535.03;5091583;28;20024;-47
2024/01/02 00:52:47;;;;;;;4.25;2.50;;;;;;;10.83;53.54;98540.09;5090249;28;20028;-47
2024/01/02 00:55:13;;;;;;;3.10;1.42;;;;;;;10.74;54.14;98534.25;5091487;28;20490;-47
2024/01/02 00:57:39;;;;;;;5.60;2.72;;;;;;;10.71;54.58;98529.41;5090198;28;20036;-47
2024/01/02 01:00:06;;;;;;;6.90;2.47;;;;;;;10.85;54.78;98529.41;5090142;28;20055;-47
2024/01/02 01:02:32;;;;;;;6.07;2.97;;;;;;;10.90;55.16;98519.88;5090156;28;20031;-47
2024/01/02 01:04:57;;;;;;;4.60;2.30;;;;;;;10.91;54.09;98523.31;5091491;28;20812;-47
2024/01/02 01:07:23;;;;;;;7.72;3.35;;;;;;;10.83;54.75;98513.84;5091353;28;20024;-47
2024/01/02 01:09:49;;;;;;;5.95;2.55;;;;;;;10.88;54.95;98514.03;5095053;28;20031;-47
2024/01/02 01:12:15;;;;;;;44.97;32.88;;;;;;;10.97;54.71;98509.38;5093871;28;20032;-47
2024/01/02 01:14:41;;;;;;;21.85;13.68;;;;;;;11.05;54.11;98503.09;5095267;28;20106;-47
2024/01/02 01:17:07;;;;;;;6.45;4.28;;;;;;;11.06;53.54;98505.47;5093781;28;20027;-47
2024/01/02 01:19:33;;;;;;;84.00;27.88;;;;;;;10.95;54.05;98485.94;5095371;28;20425;-47
2024/01/02 01:22:00;;;;;;;74.18;23.88;;;;;;;10.93;54.36;98482.72;5095053;28;20497;-47
2024/01/02 01:24:25;;;;;;;39.95;20.27;;;;;;;10.94;54.17;98467.75;5093700;28;20134;-47
2024/01/02 01:26:52;;;;;;;21.50;7.30;;;;;;;11.06;54.24;98473.97;5094900;28;20122;-47
2024/01/02 01:29:22;;;;;;;7.30;3.03;;;;;;;11.10;53.76;98469.13;5094699;28;20077;-47
2024/01/02 01:31:48;;;;;;;9.40;4.60;;;;;;;10.96;53.73;98479.66;5094792;28;20020;-47
2024/01/02 01:34:16;;;;;;;4.97;2.22;;;;;;;10.90;53.98;98488.38;5093780;28;20440;-47
2024/01/02 01:36:41;;;;;;;7.10;2.00;;;;;;;10.90;54.48;98508.56;5093423;28;20135;-47
2024/01/02 01:39:07;;;;;;;3.55;1.92;;;;;;;10.81;54.01;98518.50;5093425;28;20460;-47
2024/01/02 01:41:33;;;;;;;5.45;2.38;;;;;;;10.79;54.76;98531.03;5093354;28;20024;-46
2024/01/02 01:43:59;;;;;;;3.72;1.55;;;;;;;10.88;54.60;98537.66;5093367;28;20100;-47
2024/01/02 01:46:33;;;;;;;8.13;4.65;;;;;;;10.91;55.80;98553.00;5094832;28;20051;-47
2024/01/02 01:48:58;;;;;;;3.47;1.88;;;;;;;11.07;56.30;98556.22;5093252;28;20036;-47
2024/01/02 01:51:24;;;;;;;7.45;1.83;;;;;;;11.18;55.51;98537.16;5094451;28;20032;-47
2024/01/02 01:53:50;;;;;;;2.50;1.38;;;;;;;11.24;54.43;98543.41;5094382;28;20032;-47
2024/01/02 01:56:16;;;;;;;2.45;1.58;;;;;;;11.13;53.80;98535.16;5093294;28;20016;-47
2024/01/02 01:58:42;;;;;;;3.17;1.58;;;;;;;11.01;54.10;98536.84;5094325;28;20028;-47
2024/01/02 02:01:08;;;;;;;6.82;1.48;;;;;;;10.98;54.48;98524.91;5094240;28;20039;-47
2024/01/02 02:03:34;;;;;;;3.38;1.00;;;;;;;10.90;54.26;98527.75;5094263;28;20390;-47
2024/01/02 02:06:00;;;;;;;4.28;1.50;;;;;;;10.87;53.94;98517.69;5094157;28;20078;-47
2024/01/02 02:08:26;;;;;;;4.28;1.48;;;;;;;10.76;53.61;98524.34;5093040;28;20032;-47
2024/01/02 02:10:52;;;;;;;5.22;1.27;;;;;;;10.76;53.71;98513.84;5094087;28;20031;-47
2024/01/02 02:13:21;;;;;;;2.30;1.10;;;;;;;10.78;53.85;98506.59;5093974;28;20032;-47
2024/01/02 02:15:48;;;;;;;3.30;1.42;;;;;;;10.72;53.98;98504.78;5092703;28;20387;-47
2024/01/02 02:18:15;;;;;;;4.13;1.33;;;;;;;10.72;54.00;98504.78;5093971;28;20028;-47
2024/01/02 02:20:40;;;;;;;4.03;1.30;;;;;;;10.69;54.18;98510.44;5092245;28;20038;-47
2024/01/02 02:23:06;;;;;;;3.53;1.85;;;;;;;10.66;54.92;98491.66;5093854;28;20016;-47
2024/01/02 02:25:32;;;;;;;5.68;1.25;;;;;;;10.63;55.22;98476.34;5092434;28;20409;-47
2024/01/02 02:27:58;;;;;;;4.03;1.48;;;;;;;10.66;55.66;98474.09;5092353;28;20122;-47
2024/01/02 02:30:24;;;;;;;4.72;1.45;;;;;;;10.71;55.36;98470.88;5092262;28;20105;-47
2024/01/02 02:32:50;;;;;;;2.97;1.27;;;;;;;10.66;54.76;98483.81;5092344;28;20024;-47
2024/01/02 02:35:15;;;;;;;3.50;1.15;;;;;;;10.68;54.41;98473.91;5093592;28;20375;-47
2024/01/02 02:37:41;;;;;;;6.00;1.85;;;;;;;10.67;54.92;98474.94;5092514;28;20490;-47
2024/01/02 02:40:08;;;;;;;4.00;2.92;;;;;;;10.59;55.82;98460.22;5093490;28;20024;-47
2024/01/02 02:42:36;;;;;;;7.70;3.55;;;;;;;10.58;56.03;98464.66;5093413;28;20017;-47
2024/01/02 02:45:03;;;;;;;4.80;1.52;;;;;;;10.51;55.49;98463.06;5093364;28;20054;-47
2024/01/02 02:47:29;;;;;;;34.80;10.63;;;;;;;10.45;57.46;98466.50;5093297;28;20055;-47
2024/01/02 02:49:55;;;;;;;34.15;12.27;;;;;;;10.20;60.09;98465.28;5091982;28;20058;-47
2024/01/02 02:52:20;;;;;;;11.10;5.65;;;;;;;9.85;62.21;98479.59;5091883;28;20024;-47
2024/01/02 02:54:46;;;;;;;9.20;2.55;;;;;;;9.46;63.49;98473.31;5091951;28;20127;-47
2024/01/02 02:57:12;;;;;;;8.60;3.55;;;;;;;9.23;65.64;98473.63;5093380;28;20417;-47
2024/01/02 02:59:38;;;;;;;11.02;4.25;;;;;;;9.16;67.16;98486.72;5093343;28;20462;-47
2024/01/02 03:02:04;;;;;;;14.55;2.75;;;;;;;9.15;68.56;98469.38;5091787;28;20062;-47
2024/01/02 03:04:29;;;;;;;6.50;3.35;;;;;;;9.10;69.65;98469.97;5093059;28;20549;-47
2024/01/02 03:06:56;;;;;;;3.30;1.52;;;;;;;9.11;69.26;98457.69;5091591;28;20035;-47
2024/01/02 03:09:22;;;;;;;3.97;1.33;;;;;;;9.09;69.54;98454.44;5092928;28;20095;-47
2024/01/02 03:11:48;;;;;;;2.25;1.58;;;;;;;9.13;70.18;98448.63;5091532;28;20063;-47
2024/01/02 03:14:14;;;;;;;6.95;2.35;;;;;;;9.23;69.55;98431.72;5074937;28;20390;-47
2024/01/02 03:16:43;;;;;;;4.10;1.20;;;;;;;9.33;71.48;98443.44;5091518;28;20405;-47
2024/01/02 03:19:09;;;;;;;2.50;1.10;;;;;;;9.35;69.30;98430.16;5091469;28;20055;-47
2024/01/02 03:21:34;;;;;;;1.90;1.13;;;;;;;9.36;69.09;98427.34;5091421;28;20478;-47
2024/01/02 03:24:02;;;;;;;6.75;1.58;;;;;;;9.48;68.55;98422.31;5092727;28;20112;-47
2024/01/02 03:26:28;;;;;;;3.08;1.25;;;;;;;9.65;68.32;98414.88;5092651;28;20397;-47
2024/01/02 03:28:54;;;;;;;1.52;1.00;;;;;;;9.93;68.51;98426.97;5090955;28;20024;-48
2024/01/02 03:31:20;;;;;;;3.80;1.73;;;;;;;10.15;66.90;98451.97;5091866;28;20392;-47
2024/01/02 03:33:48;;;;;;;3.83;2.30;;;;;;;10.33;66.30;98455.81;5092551;28;20016;-47
2024/01/02 03:36:18;;;;;;;2.53;1.85;;;;;;;10.45;65.01;98456.00;5091155;28;20035;-47
2024/01/02 03:38:48;;;;;;;3.78;1.83;;;;;;;10.45;65.17;98451.56;5092394;28;20045;-47
2024/01/02 03:41:14;;;;;;;3.78;1.73;;;;;;;10.50;64.42;98449.13;5091044;28;20021;-47
2024/01/02 03:43:40;;;;;;;2.83;1.40;;;;;;;10.56;64.19;98448.31;5092339;28;20061;-47
2024/01/02 03:46:06;;;;;;;1.30;0.80;;;;;;;10.51;63.06;98437.63;5091090;28;20055;-47
2024/01/02 03:48:32;;;;;;;3.75;2.92;;;;;;;10.44;63.89;98451.75;5090907;28;20024;-47
2024/01/02 03:51:00;;;;;;;2.97;1.58;;;;;;;10.38;63.48;98427.13;5074187;28;20028;-47
2024/01/02 03:53:27;;;;;;;3.03;1.77;;;;;;;10.28;63.40;98424.94;5090871;28;20489;-47
2024/01/02 03:55:52;;;;;;;2.75;1.75;;;;;;;10.25;63.66;98429.78;5092144;28;20032;-47
2024/01/02 03:58:18;;;;;;;3.05;1.77;;;;;;;10.31;62.88;98439.47;5092131;28;20036;-47
2024/01/02 04:00:44;;;;;;;2.50;1.05;;;;;;;10.31;62.09;98428.97;5090766;28;20482;-47
2024/01/02 04:03:10;;;;;;;4.57;1.10;;;;;;;10.22;63.61;98430.97;5092073;28;20498;-47
2024/01/02 04:05:36;;;;;;;5.68;2.35;;;;;;;10.24;64.15;98438.63;5090744;28;20462;-47
2024/01/02 04:08:02;;;;;;;3.40;1.90;;;;;;;10.02;65.56;98428.41;5091973;28;20432;-47
2024/01/02 04:10:28;;;;;;;4.15;1.70;;;;;;;9.81;67.90;98434.63;5091868;28;20049;-47
2024/01/02 04:12:53;;;;;;;4.97;2.30;;;;;;;9.59;68.62;98449.72;5091976;28;20387;-47
2024/01/02 04:15:19;;;;;;;5.72;2.70;;;;;;;9.37;70.36;98441.22;5091821;28;20032;-47
2024/01/02 04:17:45;;;;;;;10.73;3.30;;;;;;;9.20;71.72;98449.44;5090576;28;20024;-47
2024/01/02 04:20:11;;;;;;;3.63;1.60;;;;;;;9.11;73.67;98441.97;5091874;28;20012;-47
2024/01/02 04:22:39;;;;;;;4.07;2.00;;;;;;;9.00;74.66;98432.88;5090516;28;20055;-47
2024/01/02 04:25:06;;;;;;;6.15;2.00;;;;;;;9.00;75.26;98438.91;5091823;28;20031;-47
2024/01/02 04:27:32;;;;;;;2.67;1.80;;;;;;;9.12;75.56;98430.50;5091722;28;20045;-47
2024/01/02 04:29:57;;;;;;;6.85;2.42;;;;;;;9.21;75.44;98426.69;5091542;28;20047;-47
2024/01/02 04:32:23;;;;;;;3.13;0.90;;;;;;;9.35;73.90;98430.94;5090389;28;20488;-47
2024/01/02 04:34:49;;;;;;;3.65;1.20;;;;;;;9.39;72.81;98416.44;5090428;28;20032;-47
2024/01/02 04:37:14;;;;;;;3.58;2.13;;;;;;;9.23;73.10;98422.06;5090363;28;20092;-47
2024/01/02 04:39:40;;;;;;;3.72;1.50;;;;;;;9.01;75.63;98424.00;5091697;28;20396;-47
2024/01/02 04:42:06;;;;;;;6.45;1.83;;;;;;;8.95;76.33;98417.78;5091314;28;20028;-47
2024/01/02 04:44:32;;;;;;;5.07;2.10;;;;;;;8.89;77.34;98425.56;5094387;28;20521;-47
2024/01/02 04:46:57;;;;;;;4.40;2.35;;;;;;;8.90;76.88;98417.53;5095653;28;20024;-47
2024/01/02 04:49:23;;;;;;;3.85;2.67;;;;;;;8.81;78.84;98423.94;5095704;28;20021;-47
2024/01/02 04:51:49;;;;;;;7.75;4.80;;;;;;;8.78;80.06;98422.53;5094252;28;20604;-46
2024/01/02 04:54:15;;;;;;;6.82;3.58;;;;;;;8.72;81.76;98414.66;5095556;28;20028;-46
2024/01/02 04:56:40;;;;;;;6.13;5.28;;;;;;;8.69;82.86;98425.50;5094185;28;20024;-47
2024/01/02 04:59:06;;;;;;;5.20;1.52;;;;;;;8.65;81.04;98419.84;5094221;28;20032;-46
2024/01/02 05:01:33;;;;;;;4.47;2.88;;;;;;;8.56;82.24;98416.59;5095450;28;20028;-47
2024/01/02 05:03:59;;;;;;;4.20;3.17;;;;;;;8.52;84.49;98425.81;5094085;28;20028;-46
2024/01/02 05:06:25;;;;;;;6.03;3.35;;;;;;;8.40;85.92;98432.56;5093967;28;20024;-46
2024/01/02 05:08:51;;;;;;;5.15;3.17;;;;;;;8.36;86.31;98419.06;5095198;28;20059;-46
2024/01/02 05:11:17;;;;;;;6.07;4.05;;;;;;;8.36;86.72;98433.94;5093879;28;20085;-46
2024/01/02 05:13:43;;;;;;;2.80;2.08;;;;;;;8.38;87.76;98411.03;5093931;28;20063;-46
2024/01/02 05:16:08;;;;;;;5.50;3.65;;;;;;;8.45;87.15;98445.91;5093859;28;20060;-46
2024/01/02 05:18:34;;;;;;;4.00;2.80;;;;;;;8.47;86.51;98438.69;5093826;28;20028;-47
2024/01/02 05:21:00;;;;;;;2.88;2.42;;;;;;;8.54;86.75;98428.25;5095106;28;20028;-47
2024/01/02 05:23:26;;;;;;;5.85;5.30;;;;;;;8.68;87.73;98444.81;5095027;28;20035;-47
2024/01/02 05:25:52;;;;;;;2.25;1.45;;;;;;;8.71;85.78;98441.81;5094912;28;20043;-47
2024/01/02 05:28:18;;;;;;;3.10;2.10;;;;;;;8.70;85.94;98435.78;5094790;28;20020;-47
2024/01/02 05:30:43;;;;;;;2.50;1.67;;;;;;;8.72;85.78;98449.47;5093412;28;20047;-47
2024/01/02 05:33:09;;;;;;;4.43;2.17;;;;;;;8.70;86.11;98448.84;5094808;28;20020;-47
2024/01/02 05:35:35;;;;;;;3.03;1.55;;;;;;;8.76;87.66;98442.03;5093453;28;20107;-47
2024/01/02 05:38:02;;;;;;;8.55;4.40;;;;;;;8.86;87.69;98460.81;5094767;28;20389;-47
2024/01/02 05:40:27;;;;;;;87.50;68.93;;;;;;;8.78;88.33;98459.16;5093340;28;20028;-47
2024/01/02 05:42:53;;;;;;;12.45;10.90;;;;;;;8.76;89.15;98471.63;5093299;28;20031;-46
2024/01/02 05:45:19;;;;;;;16.75;15.00;;;;;;;8.66;89.77;98480.84;5094397;28;20024;-46
2024/01/02 05:47:45;;;;;;;16.92;15.18;;;;;;;8.59;92.77;98491.25;5093122;28;20028;-46
2024/01/02 05:50:10;;;;;;;13.80;8.65;;;;;;;8.64;93.89;98501.94;5093172;28;20405;-46
2024/01/02 05:52:36;;;;;;;2.17;1.35;;;;;;;8.57;91.46;98499.31;5093191;28;20024;-46
2024/01/02 05:55:02;;;;;;;16.17;10.55;;;;;;;8.47;93.64;98500.63;5093658;28;20020;-45
2024/01/02 05:57:28;;;;;;;12.55;10.23;;;;;;;8.51;95.79;98501.84;5093033;28;20402;-45
2024/01/02 05:59:53;;;;;;;3.00;2.03;;;;;;;8.46;93.74;98499.81;5094331;28;20052;-45
2024/01/02 06:02:19;;;;;;;6.07;4.70;;;;;;;8.46;96.48;98491.97;5092919;28;20598;-45
2024/01/02 06:04:45;;;;;;;14.30;12.15;;;;;;;8.40;95.69;98505.78;5094278;28;20020;-45
2024/01/02 06:07:10;;;;;;;8.48;6.97;;;;;;;8.36;97.65;98489.66;5092762;28;20024;-45
2024/01/02 06:09:36;;;;;;;10.60;7.75;;;;;;;8.32;97.78;98480.59;5092840;28;20028;-45
2024/01/02 06:12:02;;;;;;;12.15;8.15;;;;;;;8.33;97.25;98471.75;5092783;28;20077;-45
2024/01/02 06:14:27;;;;;;;18.27;10.82;;;;;;;8.29;97.32;98493.22;5094064;28;20083;-45
2024/01/02 06:16:53;;;;;;;5.22;2.85;;;;;;;8.40;98.57;98463.94;5092763;28;20020;-45
2024/01/02 06:19:19;;;;;;;9.40;6.45;;;;;;;8.41;96.76;98468.22;5094016;28;20560;-45
2024/01/02 06:21:45;;;;;;;7.07;5.07;;;;;;;8.38;98.73;98479.81;5092631;28;20024;-45
2024/01/02 06:24:11;;;;;;;5.55;4.57;;;;;;;8.31;99.18;98475.53;5092546;28;20048;-45
2024/01/02 06:26:36;;;;;;;8.55;7.68;;;;;;;8.33;100.00;98470.94;5092463;28;20062;-45
2024/01/02 06:29:02;;;;;;;5.93;3.88;;;;;;;8.43;100.00;98484.53;5093355;28;20589;-45
2024/01/02 06:31:31;;;;;;;18.30;15.13;;;;;;;8.39;100.00;98481.44;5094003;28;20036;-45
2024/01/02 06:33:56;;;;;;;9.63;7.32;;;;;;;8.39;100.00;98476.22;5092386;28;20024;-45
2024/01/02 06:36:22;;;;;;;9.60;7.88;;;;;;;8.35;100.00;98468.94;5075426;28;20074;-45
2024/01/02 06:38:48;;;;;;;7.80;4.70;;;;;;;8.28;100.00;98473.31;5093595;28;20032;-45
2024/01/02 06:41:13;;;;;;;8.90;6.63;;;;;;;8.28;100.00;98481.16;5093515;28;20072;-45
2024/01/02 06:43:39;;;;;;;12.70;11.40;;;;;;;8.23;100.00;98463.44;5093702;28;20052;-46
2024/01/02 06:46:05;;;;;;;19.13;15.90;;;;;;;8.20;100.00;98469.03;5093367;28;20024;-45
2024/01/02 06:48:31;;;;;;;9.45;4.20;;;;;;;8.21;100.00;98465.44;5093264;28;20122;-45
2024/01/02 06:50:56;;;;;;;10.90;5.35;;;;;;;8.22;100.00;98447.94;5092022;28;20028;-45
2024/01/02 06:53:22;;;;;;;11.50;9.43;;;;;;;8.20;100.00;98435.84;5091994;28;20107;-45
2024/01/02 06:55:48;;;;;;;7.57;4.68;;;;;;;8.16;100.00;98441.66;5093154;28;20504;-45
2024/01/02 06:58:13;;;;;;;8.32;7.53;;;;;;;8.16;100.00;98447.69;5093122;28;20111;-45
2024/01/02 07:00:39;;;;;;;11.60;6.03;;;;;;;8.09;100.00;98436.41;5091970;28;20028;-45
2024/01/02 07:03:05;;;;;;;10.30;5.97;;;;;;;8.14;100.00;98428.78;5091826;28;20020;-45
2024/01/02 07:05:30;;;;;;;8.13;6.53;;;;;;;8.24;100.00;98418.00;5092049;28;20035;-45
2024/01/02 07:07:56;;;;;;;7.95;2.90;;;;;;;8.26;100.00;98430.88;5092948;28;20116;-45
2024/01/02 07:10:24;;;;;;;12.57;4.72;;;;;;;8.31;100.00;98421.47;5091608;28;20020;-45
2024/01/02 07:12:50;;;;;;;6.13;4.47;;;;;;;8.33;100.00;98427.31;5093167;28;20475;-45
2024/01/02 07:15:16;;;;;;;8.80;4.25;;;;;;;8.32;100.00;98449.22;5091565;28;20028;-45
2024/01/02 07:17:43;;;;;;;6.75;5.68;;;;;;;8.33;100.00;98442.16;5092812;28;20512;-45
2024/01/02 07:20:09;;;;;;;11.80;10.23;;;;;;;8.31;100.00;98434.53;5091441;28;20558;-45
2024/01/02 07:22:35;;;;;;;5.32;3.95;;;;;;;8.30;100.00;98447.78;5091409;28;20024;-45
2024/01/02 07:25:01;;;;;;;13.65;9.63;;;;;;;8.23;100.00;98462.63;5091383;28;20478;-45
2024/01/02 07:27:26;;;;;;;7.75;6.95;;;;;;;8.30;100.00;98466.09;5092538;28;20564;-45
2024/01/02 07:29:52;;;;;;;5.22;3.13;;;;;;;8.24;100.00;98466.84;5092456;28;20048;-45
2024/01/02 07:32:18;;;;;;;8.88;7.97;;;;;;;8.22;100.00;98463.63;5092559;28;20103;-45
2024/01/02 07:34:44;;;;;;;4.55;2.10;;;;;;;8.18;100.00;98491.94;5092487;28;20020;-45
2024/01/02 07:37:11;;;;;;;17.52;15.75;;;;;;;8.18;100.00;98471.84;5092441;28;20031;-45
2024/01/02 07:39:37;;;;;;;13.75;12.27;;;;;;;8.19;100.00;98456.97;5092474;28;20024;-44
2024/01/02 07:42:04;;;;;;;13.20;9.65;;;;;;;8.19;100.00;98447.31;5092411;28;20400;-44
2024/01/02 07:44:30;;;;;;;10.93;8.60;;;;;;;8.14;100.00;98460.13;5092262;28;20415;-44
2024/01/02 07:46:57;;;;;;;18.63;15.10;;;;;;;8.12;100.00;98461.34;5092217;28;20024;-44
2024/01/02 07:49:23;;;;;;;34.28;28.08;;;;;;;8.16;100.00;98486.91;5092228;28;20102;-44
2024/01/02 07:51:49;;;;;;;15.80;12.15;;;;;;;8.18;100.00;98471.03;5090893;28;20131;-44
2024/01/02 07:54:14;;;;;;;39.80;33.47;;;;;;;8.16;100.00;98460.75;5090910;28;20031;-44
2024/01/02 07:56:40;;;;;;;6.53;4.35;;;;;;;8.12;100.00;98467.38;5091078;28;20371;-44
2024/01/02 07:59:06;;;;;;;13.95;9.57;;;;;;;8.11;100.00;98468.38;5090812;28;20126;-45
2024/01/02 08:01:31;;;;;;;18.52;11.35;;;;;;;8.17;100.00;98428.41;5092061;28;20024;-46
2024/01/02 08:03:57;;;;;;;15.50;11.77;;;;;;;8.22;100.00;98435.66;5090673;28;20390;-46
2024/01/02 08:06:23;;;;;;;6.38;5.40;;;;;;;8.29;100.00;98456.63;5091994;28;20065;-46
2024/01/02 08:08:50;;;;;;;18.38;16.20;;;;;;;8.29;100.00;98417.41;5090625;28;20024;-46
2024/01/02 08:11:15;;;;;;;8.73;5.18;;;;;;;8.35;100.00;98432.31;5090581;28;20024;-47
2024/01/02 08:13:41;;;;;;;9.63;6.78;;;;;;;8.37;100.00;98435.56;5091961;28;20488;-47
2024/01/02 08:16:07;;;;;;;10.15;8.30;;;;;;;8.39;100.00;98444.00;5090545;28;20107;-47
2024/01/02 08:18:40;;;;;;;7.07;5.00;;;;;;;8.42;100.00;98448.91;5090233;28;20031;-47
2024/01/02 08:21:07;;;;;;;54.25;44.17;;;;;;;8.40;100.00;98492.72;5091892;28;20077;-47
2024/01/02 08:23:35;;;;;;;18.80;12.15;;;;;;;8.44;100.00;98446.91;5091874;28;20027;-46
2024/01/02 08:26:02;;;;;;;9.65;5.38;;;;;;;8.45;100.00;98434.63;5090481;28;20464;-46
2024/01/02 08:28:28;;;;;;;16.70;11.18;;;;;;;8.50;100.00;98453.19;5091719;28;20508;-46
2024/01/02 08:30:54;;;;;;;11.13;7.10;;;;;;;8.49;100.00;98441.91;5090278;28;20040;-46
2024/01/02 08:33:20;;;;;;;20.48;13.10;;;;;;;8.61;100.00;98444.78;5091984;28;20085;-49
2024/01/02 08:35:46;;;;;;;27.73;19.67;;;;;;;8.83;100.00;98452.53;5091734;28;20028;-48
2024/01/02 08:38:12;;;;;;;17.58;9.63;;;;;;;8.93;100.00;98425.00;5090329;28;20559;-49
2024/01/02 08:40:37;;;;;;;9.90;5.05;;;;;;;9.02;100.00;98428.25;5091602;28;20024;-48
2024/01/02 08:43:04;;;;;;;14.45;5.88;;;;;;;9.17;100.00;98428.88;5090400;28;20135;-48
2024/01/02 08:45:29;;;;;;;103.75;16.77;;;;;;;9.38;100.00;98388.66;5091828;28;20016;-48
2024/01/02 08:47:55;;;;;;;71.80;7.45;;;;;;;9.55;100.00;98380.41;5090223;28;20559;-49
2024/01/02 08:50:22;;;;;;;93.82;9.13;;;;;;;9.65;100.00;98357.22;5090229;28;20038;-49
2024/01/02 08:52:49;;;;;;;70.40;7.22;;;;;;;9.73;100.00;98380.59;5091618;28;20505;-49
2024/01/02 08:55:15;;;;;;;57.58;13.55;;;;;;;9.85;100.00;98366.91;5091443;28;20036;-49
2024/01/02 08:57:41;;;;;;;15.13;3.80;;;;;;;9.85;100.00;98377.38;5090258;28;20455;-49
2024/01/02 09:00:07;;;;;;;34.83;5.88;;;;;;;9.85;100.00;98367.69;5091519;28;20043;-48
2024/01/02 09:02:34;;;;;;;16.00;2.45;;;;;;;9.94;100.00;98350.75;5091415;28;20021;-49
2024/01/02 09:04:59;;;;;;;16.85;2.10;;;;;;;10.18;100.00;98366.81;5091475;28;20522;-46
2024/01/02 09:07:25;;;;;;;38.97;4.80;;;;;;;10.32;100.00;98352.72;5091396;28;20081;-48
2024/01/02 09:09:51;;;;;;;5.80;2.10;;;;;;;10.37;100.00;98373.88;5091416;28;20524;-49
2024/01/02 09:12:17;;;;;;;3.90;1.40;;;;;;;10.36;100.00;98358.34;5090082;28;20111;-49
2024/01/02 09:14:42;;;;;;;3.67;1.00;;;;;;;10.24;100.00;98378.31;5091410;28;20020;-48
2024/01/02 09:17:08;;;;;;;5.68;2.03;;;;;;;10.08;97.34;98351.53;5091286;28;20137;-48
2024/01/02 09:19:34;;;;;;;16.13;7.32;;;;;;;10.09;100.00;98381.97;5091374;28;20062;-48
2024/01/02 09:22:00;;;;;;;15.93;11.15;;;;;;;10.16;100.00;98376.72;5090016;28;20035;-48
2024/01/02 09:24:26;;;;;;;8.50;5.30;;;;;;;10.02;99.94;98362.03;5091200;28;20397;-48
2024/01/02 09:26:55;;;;;;;16.58;11.23;;;;;;;9.85;99.53;98343.31;5091188;28;20106;-49
2024/01/02 09:29:23;;;;;;;6.63;3.53;;;;;;;9.72;100.00;98370.34;5092304;28;20466;-49
2024/01/02 09:31:49;;;;;;;11.38;8.10;;;;;;;9.63;100.00;98384.66;5094904;28;20405;-49
2024/01/02 09:34:14;;;;;;;14.30;5.88;;;;;;;9.59;100.00;98407.81;5093522;28;20036;-49
2024/01/02 09:36:41;;;;;;;14.93;4.82;;;;;;;9.81;100.00;98408.44;5093506;28;20031;-49
2024/01/02 09:39:07;;;;;;;5.53;1.55;;;;;;;9.87;100.00;98402.38;5094727;28;20020;-49
2024/01/02 09:41:41;;;;;;;20.40;4.72;;;;;;;9.86;100.00;98420.91;5094612;28;20043;-48
2024/01/02 09:44:41;;;;;;;4.63;1.70;;;;;;;9.78;99.70;98399.16;5093441;28;20028;-49
2024/01/02 09:47:07;;;;;;;25.75;7.65;;;;;;;9.80;100.00;98430.41;5094608;28;20062;-49
2024/01/02 09:49:46;;;;;;;26.73;11.02;;;;;;;9.90;100.00;98416.88;5094605;28;20542;-49
2024/01/02 09:52:30;;;;;;;3.17;1.42;;;;;;;10.05;100.00;98400.97;5093188;28;20124;-49
2024/01/02 09:55:14;;;;;;;24.23;5.50;;;;;;;10.19;100.00;98392.06;5094547;28;20032;-49
2024/01/02 09:58:03;;;;;;;15.07;2.55;;;;;;;10.37;100.00;98409.81;5093399;28;20020;-49
2024/01/02 10:00:29;;;;;;;6.15;1.25;;;;;;;10.39;100.00;98413.03;5094349;28;20107;-48
2024/01/02 10:03:51;;;;;;;2.38;1.52;;;;;;;10.36;100.00;98422.13;5094527;28;20165;-49
2024/01/02 10:07:04;;;;;;;3.75;1.17;;;;;;;10.26;100.00;98420.88;5015247;28;20029;-48
2024/01/02 10:10:06;;;;;;;7.38;1.98;;;;;;;10.22;98.36;98404.75;5028019;28;20025;-48
2024/01/02 10:12:47;;;;;;;5.32;1.65;;;;;;;10.10;96.77;98383.59;5031677;28;20029;-48
2024/01/02 10:15:19;;;;;;;3.90;1.95;;;;;;;10.07;95.51;98399.72;5031658;28;20380;-49
2024/01/02 10:18:32;;;;;;;7.75;3.15;;;;;;;10.01;98.88;98403.16;5031743;28;20160;-48
2024/01/02 10:21:12;;;;;;;17.08;4.20;;;;;;;9.91;96.40;98371.31;4992235;28;20043;-48
2024/01/02 10:23:54;;;;;;;6.00;4.10;;;;;;;9.68;98.54;98396.13;4992200;28;20444;-48
2024/01/02 10:26:22;;;;;;;5.22;2.38;;;;;;;9.54;97.06;98394.53;4992139;28;20410;-48
2024/01/02 10:28:50;;;;;;;16.55;10.88;;;;;;;9.39;98.18;98376.38;4991757;28;20023;-48
2024/01/02 10:31:54;;;;;;;10.93;4.70;;;;;;;9.41;100.00;98356.00;4975629;28;20061;-47
2024/01/02 10:34:35;;;;;;;24.13;18.08;;;;;;;9.53;100.00;98382.41;4983277;28;20072;-47
2024/01/02 10:37:05;;;;;;;10.05;2.47;;;;;;;9.63;100.00;98368.94;5032677;28;20055;-47
2024/01/02 10:39:39;;;;;;;28.33;4.43;;;;;;;9.61;100.00;98366.50;5070941;28;20036;-47
2024/01/02 10:42:32;;;;;;;31.23;4.65;;;;;;;9.54;100.00;98365.72;5070938;28;20024;-47
2024/01/02 10:45:42;;;;;;;6.50;3.20;;;;;;;9.41;100.00;98363.88;5071134;28;20056;-47
2024/01/02 10:48:08;;;;;;;7.45;3.22;;;;;;;9.43;100.00;98361.06;5033739;28;20468;-47
2024/01/02 10:50:52;;;;;;;20.30;3.92;;;;;;;9.48;100.00;98356.84;5054113;28;20033;-47
2024/01/02 10:53:39;;;;;;;18.73;8.02;;;;;;;9.56;100.00;98342.75;5070959;28;20063;-48
2024/01/02 10:56:38;;;;;;;15.55;2.63;;;;;;;9.59;100.00;98342.31;5077253;28;20109;-46
2024/01/02 10:59:12;;;;;;;13.60;2.60;;;;;;;9.66;100.00;98326.59;5093327;28;20103;-46
2024/01/02 11:01:40;;;;;;;100.80;9.73;;;;;;;9.77;100.00;98318.91;5093208;28;20035;-49
2024/01/02 11:04:20;;;;;;;58.85;5.57;;;;;;;9.86;100.00;98319.53;5093122;28;20069;-48
2024/01/02 11:06:55;;;;;;;29.90;4.53;;;;;;;10.03;100.00;98308.59;5091891;28;20452;-49
2024/01/02 11:09:26;;;;;;;24.20;6.63;;;;;;;10.24;100.00;98292.59;5091763;28;20036;-49
2024/01/02 11:11:54;;;;;;;361.02;40.30;;;;;;;10.43;98.36;98282.25;5091829;28;20043;-48
2024/01/02 11:14:24;;;;;;;8.13;3.78;;;;;;;10.54;100.00;98294.69;5091609;28;20024;-46
2024/01/02 11:16:52;;;;;;;23.33;8.45;;;;;;;10.80;99.91;98283.25;5092901;28;20024;-46
2024/01/02 11:19:24;;;;;;;26.58;6.68;;;;;;;11.10;100.00;98278.19;5093054;28;20375;-46
2024/01/02 11:22:08;;;;;;;8.23;2.63;;;;;;;11.27;95.77;98270.59;5092862;28;20031;-46
2024/01/02 11:24:40;;;;;;;21.77;12.10;;;;;;;11.37;95.20;98268.28;5092807;28;20028;-47
2024/01/02 11:27:07;;;;;;;16.98;10.40;;;;;;;11.50;97.85;98237.66;5092563;28;20470;-46
2024/01/02 11:29:35;;;;;;;12.88;7.03;;;;;;;11.63;96.15;98252.47;5091082;28;20070;-46
2024/01/02 11:32:13;;;;;;;6.53;2.75;;;;;;;11.64;90.64;98215.47;5092579;28;20032;-46
2024/01/02 11:35:00;;;;;;;9.98;2.80;;;;;;;11.54;86.85;98207.28;5092545;28;20051;-46
2024/01/02 11:37:34;;;;;;;4.82;2.17;;;;;;;11.43;86.30;98213.25;5092617;28;20024;-48